Terminal Aerodrome Forecast
Issued by NWS Green Bay, WI

Home | Current Version | Previous Version | Text Only | Print | Product List | Glossary On
Versions: 1 2 3 4 5 6 7 8 9 10 11 12 13 14 15 16 17
000
FTUS43 KGRB 191354 AAA
TAFGRB
TAF AMD
KGRB 191354Z 1914/2012 06004KT P6SM BKN008
     FM191600 10006KT P6SM SCT010 SCT070
      TEMPO 1916/1920 BKN010
     FM200700 13004KT P6SM SCT100 SCT200
      TEMPO 2008/2012 3SM BR SCT010 BKN100=

USA.gov is the U.S. government's official web portal to all federal, state and local government web resources and services.